Time;durP1;ratioP1;P1;durP2;ratioP2;P2;SDS_P1;SDS_P2;PMS_P1;PMS_P2;Temp;Humidity;BMP_temperature;BMP_pressure;BME280_temperature;BME280_humidity;BME280_pressure;Samples;Min_cycle;Max_cycle;Signal;HPM_P1;HPM_P2
2023/03/08 00:01:15;;;;;;;18.40;8.10;;;;;;;;;;5083443;28;20098;-56
2023/03/08 00:03:41;;;;;;;11.40;7.63;;;;;;;;;;5083151;28;20071;-56
2023/03/08 00:06:08;;;;;;;12.32;6.25;;;;;;;;;;5083771;28;20040;-56
2023/03/08 00:08:34;;;;;;;16.90;7.78;;;;;;;;;;5085522;27;20037;-56
2023/03/08 00:11:04;;;;;;;11.57;6.85;;;;;;;;;;5083217;28;20044;-56
2023/03/08 00:13:30;;;;;;;14.10;7.05;;;;;;;;;;5085976;28;20571;-56
2023/03/08 00:15:59;;;;;;;13.15;8.48;;;;;;;;;;5082487;28;20106;-57
2023/03/08 00:18:25;;;;;;;10.93;6.55;;;;;;;;;;5083560;28;20080;-56
2023/03/08 00:20:58;;;;;;;15.25;7.47;;;;;;;;;;5082262;28;20143;-56
2023/03/08 00:23:24;;;;;;;12.18;6.95;;;;;;;;;;5081988;28;20051;-57
2023/03/08 00:25:53;;;;;;;12.90;8.18;;;;;;;;;;5081434;28;20977;-56
2023/03/08 00:28:19;;;;;;;14.30;8.10;;;;;;;;;;5083122;28;20247;-56
2023/03/08 00:30:46;;;;;;;15.77;8.13;;;;;;;;;;5081630;28;20055;-56
2023/03/08 00:33:12;;;;;;;15.20;7.80;;;;;;;;;;5078727;28;20048;-56
2023/03/08 00:35:38;;;;;;;13.98;8.25;;;;;;;;;;5077889;28;20036;-56
2023/03/08 00:38:04;;;;;;;14.65;8.75;;;;;;;;;;5078261;28;20040;-56
2023/03/08 00:40:30;;;;;;;13.40;8.10;;;;;;;;;;5079983;28;20044;-57
2023/03/08 00:42:56;;;;;;;15.95;8.98;;;;;;;;;;5083378;28;20044;-57
2023/03/08 00:45:22;;;;;;;18.42;8.60;;;;;;;;;;5081132;28;20041;-57
2023/03/08 00:47:48;;;;;;;16.85;9.20;;;;;;;;;;5081424;28;20537;-57
2023/03/08 00:50:14;;;;;;;15.90;8.77;;;;;;;;;;5081575;28;20151;-56
2023/03/08 00:52:40;;;;;;;21.00;8.85;;;;;;;;;;5083339;28;20032;-57
2023/03/08 00:55:07;;;;;;;13.95;7.68;;;;;;;;;;5081614;28;20056;-56
2023/03/08 00:57:33;;;;;;;14.18;7.40;;;;;;;;;;5083017;28;20036;-56
2023/03/08 00:59:59;;;;;;;11.45;7.57;;;;;;;;;;5082688;28;20048;-57
2023/03/08 01:02:25;;;;;;;13.98;8.10;;;;;;;;;;5079746;28;20097;-57
2023/03/08 01:04:51;;;;;;;15.23;7.93;;;;;;;;;;5081681;28;20065;-56
2023/03/08 01:07:18;;;;;;;14.32;9.10;;;;;;;;;;5081499;28;20114;-56
2023/03/08 01:09:44;;;;;;;15.40;8.15;;;;;;;;;;5082063;28;20051;-57
2023/03/08 01:12:10;;;;;;;14.45;7.40;;;;;;;;;;5081797;28;20037;-57
2023/03/08 01:14:37;;;;;;;11.77;6.63;;;;;;;;;;5082675;28;20148;-56
2023/03/08 01:17:03;;;;;;;12.35;7.10;;;;;;;;;;5080081;28;21877;-57
2023/03/08 01:19:29;;;;;;;11.90;8.15;;;;;;;;;;5084845;28;20040;-56
2023/03/08 01:21:55;;;;;;;17.40;7.18;;;;;;;;;;5081362;28;20047;-55
2023/03/08 01:24:21;;;;;;;13.75;7.97;;;;;;;;;;5082839;28;20133;-57
2023/03/08 01:26:47;;;;;;;16.10;8.43;;;;;;;;;;5079363;28;20967;-56
2023/03/08 01:29:13;;;;;;;12.73;8.52;;;;;;;;;;5083493;28;20052;-56
2023/03/08 01:31:39;;;;;;;12.23;7.20;;;;;;;;;;5081090;28;20051;-56
2023/03/08 01:34:05;;;;;;;14.40;7.97;;;;;;;;;;5082717;28;20048;-56
2023/03/08 01:36:31;;;;;;;12.85;7.43;;;;;;;;;;5082116;28;20032;-56
2023/03/08 01:38:59;;;;;;;14.60;8.32;;;;;;;;;;5082605;28;20087;-56
2023/03/08 01:41:27;;;;;;;11.60;7.65;;;;;;;;;;5081670;28;20535;-56
2023/03/08 01:43:53;;;;;;;13.13;7.88;;;;;;;;;;5082378;28;20747;-56
2023/03/08 01:46:24;;;;;;;16.60;6.75;;;;;;;;;;5079099;28;20540;-56
2023/03/08 01:49:10;;;;;;;11.30;6.80;;;;;;;;;;5080726;28;20045;-56
2023/03/08 01:51:37;;;;;;;13.85;7.50;;;;;;;;;;5081417;28;20090;-56
2023/03/08 01:54:06;;;;;;;14.13;8.23;;;;;;;;;;5080727;28;20110;-56
2023/03/08 01:56:32;;;;;;;14.00;7.45;;;;;;;;;;5078994;28;20062;-56
2023/03/08 01:59:00;;;;;;;11.73;6.47;;;;;;;;;;5080665;28;20036;-56
2023/03/08 02:01:26;;;;;;;12.90;6.43;;;;;;;;;;5076093;28;20044;-56
2023/03/08 02:03:52;;;;;;;12.25;7.05;;;;;;;;;;5082719;28;20118;-56
2023/03/08 02:06:19;;;;;;;13.13;7.75;;;;;;;;;;5082432;28;20051;-56
2023/03/08 02:08:45;;;;;;;10.40;6.68;;;;;;;;;;5080537;28;20052;-56
2023/03/08 02:11:12;;;;;;;12.57;7.18;;;;;;;;;;5081904;28;20056;-56
2023/03/08 02:13:39;;;;;;;12.93;7.75;;;;;;;;;;5080529;28;20040;-56
2023/03/08 02:16:07;;;;;;;13.00;8.63;;;;;;;;;;5081726;28;20048;-56
2023/03/08 02:18:33;;;;;;;15.35;7.22;;;;;;;;;;5080884;28;20147;-56
2023/03/08 02:21:00;;;;;;;11.30;6.10;;;;;;;;;;5082327;28;20052;-56
2023/03/08 02:23:26;;;;;;;12.52;6.43;;;;;;;;;;5080265;28;20041;-56
2023/03/08 02:25:57;;;;;;;12.43;7.00;;;;;;;;;;5081881;28;20062;-56
2023/03/08 02:28:23;;;;;;;11.68;6.28;;;;;;;;;;5080803;28;20163;-56
2023/03/08 02:30:50;;;;;;;9.73;5.40;;;;;;;;;;5081220;28;20044;-56
2023/03/08 02:33:17;;;;;;;10.27;5.55;;;;;;;;;;5081002;28;20045;-56
2023/03/08 02:35:43;;;;;;;10.98;5.90;;;;;;;;;;5082780;28;20097;-56
2023/03/08 02:38:13;;;;;;;12.13;5.90;;;;;;;;;;5079082;28;20455;-55
2023/03/08 02:40:40;;;;;;;13.60;6.32;;;;;;;;;;5081588;28;20033;-56
2023/03/08 02:43:06;;;;;;;10.10;4.93;;;;;;;;;;5080311;28;21841;-56
2023/03/08 02:45:32;;;;;;;10.20;5.78;;;;;;;;;;5081463;28;20634;-56
2023/03/08 02:47:59;;;;;;;9.43;5.90;;;;;;;;;;5079715;28;20044;-56
2023/03/08 02:50:25;;;;;;;11.13;5.78;;;;;;;;;;5080590;28;20101;-56
2023/03/08 02:52:51;;;;;;;7.95;5.05;;;;;;;;;;5082442;28;20041;-56
2023/03/08 02:55:17;;;;;;;7.38;5.43;;;;;;;;;;5079687;28;20044;-56
2023/03/08 02:57:44;;;;;;;8.77;5.45;;;;;;;;;;5079700;28;20029;-56
2023/03/08 03:00:10;;;;;;;9.80;5.45;;;;;;;;;;5082053;28;20036;-56
2023/03/08 03:02:36;;;;;;;12.73;5.95;;;;;;;;;;5080747;27;20489;-56
2023/03/08 03:05:06;;;;;;;10.45;5.20;;;;;;;;;;5080884;28;20047;-56
2023/03/08 03:07:35;;;;;;;10.88;5.97;;;;;;;;;;5079643;28;20588;-55
2023/03/08 03:10:01;;;;;;;11.10;5.65;;;;;;;;;;5081717;28;20044;-56
2023/03/08 03:12:27;;;;;;;12.32;5.53;;;;;;;;;;5076582;28;20826;-56
2023/03/08 03:14:53;;;;;;;7.88;5.22;;;;;;;;;;5080410;28;20877;-59
2023/03/08 03:17:19;;;;;;;7.45;4.53;;;;;;;;;;5078937;28;20068;-56
2023/03/08 03:19:45;;;;;;;8.60;4.93;;;;;;;;;;5080392;28;20048;-56
2023/03/08 03:22:11;;;;;;;7.88;4.57;;;;;;;;;;5080148;28;20040;-55
2023/03/08 03:24:37;;;;;;;7.28;4.43;;;;;;;;;;5076882;28;20052;-55
2023/03/08 03:27:03;;;;;;;9.60;4.53;;;;;;;;;;5079362;28;20179;-55
2023/03/08 03:29:29;;;;;;;9.13;4.72;;;;;;;;;;5079753;28;20096;-55
2023/03/08 03:31:55;;;;;;;8.75;4.28;;;;;;;;;;5078563;28;20482;-55
2023/03/08 03:34:22;;;;;;;7.07;4.63;;;;;;;;;;5079879;28;20120;-55
2023/03/08 03:36:48;;;;;;;6.70;4.88;;;;;;;;;;5078943;28;20537;-55
2023/03/08 03:39:14;;;;;;;5.68;3.40;;;;;;;;;;5077586;28;20272;-56
2023/03/08 03:41:40;;;;;;;6.85;4.47;;;;;;;;;;5077269;27;20206;-55
2023/03/08 03:44:06;;;;;;;8.45;4.63;;;;;;;;;;5079638;28;20063;-55
2023/03/08 03:46:32;;;;;;;5.22;3.33;;;;;;;;;;5078776;28;20124;-55
2023/03/08 03:48:59;;;;;;;6.63;3.35;;;;;;;;;;5076050;28;20048;-56
2023/03/08 03:51:25;;;;;;;5.88;3.38;;;;;;;;;;5080484;28;20093;-56
2023/03/08 03:53:51;;;;;;;6.25;3.85;;;;;;;;;;5075740;28;20083;-55
2023/03/08 03:56:19;;;;;;;7.00;3.83;;;;;;;;;;5073782;28;20620;-56
2023/03/08 03:58:45;;;;;;;8.65;3.50;;;;;;;;;;5082162;28;20045;-56
2023/03/08 04:01:13;;;;;;;5.72;2.90;;;;;;;;;;5077797;28;20465;-55
2023/03/08 04:03:40;;;;;;;4.28;2.67;;;;;;;;;;5081121;28;20036;-56
2023/03/08 04:06:16;;;;;;;4.78;3.05;;;;;;;;;;5080288;28;20040;-56
2023/03/08 04:08:43;;;;;;;4.53;2.83;;;;;;;;;;5078643;28;21053;-56
2023/03/08 04:11:09;;;;;;;4.93;2.72;;;;;;;;;;5076319;28;20090;-56
2023/03/08 04:13:35;;;;;;;4.43;2.63;;;;;;;;;;5077957;28;20055;-56
2023/03/08 04:16:08;;;;;;;3.92;2.30;;;;;;;;;;5079496;28;20091;-56
2023/03/08 04:18:34;;;;;;;4.07;2.63;;;;;;;;;;5080327;28;20047;-56
2023/03/08 04:21:00;;;;;;;3.78;2.25;;;;;;;;;;5077209;28;20052;-55
2023/03/08 04:23:26;;;;;;;3.55;2.00;;;;;;;;;;5079066;28;20044;-56
2023/03/08 04:25:52;;;;;;;4.00;2.38;;;;;;;;;;5076704;28;20046;-56
2023/03/08 04:28:18;;;;;;;3.92;2.13;;;;;;;;;;5080477;28;20064;-56
2023/03/08 04:30:44;;;;;;;3.55;2.05;;;;;;;;;;5082057;28;20112;-56
2023/03/08 04:33:10;;;;;;;3.22;1.88;;;;;;;;;;5084070;28;20044;-56
2023/03/08 04:35:36;;;;;;;2.72;1.58;;;;;;;;;;5080100;28;20127;-56
2023/03/08 04:38:03;;;;;;;3.17;2.00;;;;;;;;;;5083073;28;20036;-56
2023/03/08 04:40:29;;;;;;;3.15;1.92;;;;;;;;;;5079610;28;20127;-56
2023/03/08 04:42:55;;;;;;;2.97;2.35;;;;;;;;;;5081720;28;20159;-55
2023/03/08 04:45:21;;;;;;;4.05;2.28;;;;;;;;;;5081366;28;20055;-57
2023/03/08 04:47:47;;;;;;;3.65;1.70;;;;;;;;;;5080856;28;20047;-56
2023/03/08 04:50:13;;;;;;;3.63;1.70;;;;;;;;;;5080098;28;20037;-55
2023/03/08 04:52:39;;;;;;;3.00;2.00;;;;;;;;;;5083338;28;20120;-55
2023/03/08 04:55:06;;;;;;;2.97;1.50;;;;;;;;;;5080143;28;20646;-55
2023/03/08 04:57:33;;;;;;;4.60;2.20;;;;;;;;;;5082045;28;20044;-56
2023/03/08 05:00:00;;;;;;;2.42;1.63;;;;;;;;;;5084119;28;20044;-55
2023/03/08 05:02:26;;;;;;;2.28;1.48;;;;;;;;;;5081968;28;20123;-55
2023/03/08 05:04:52;;;;;;;2.38;1.17;;;;;;;;;;5083683;28;20076;-55
2023/03/08 05:07:18;;;;;;;2.85;1.60;;;;;;;;;;5082370;28;20040;-55
2023/03/08 05:09:44;;;;;;;2.80;1.73;;;;;;;;;;5077896;28;20139;-55
2023/03/08 05:12:10;;;;;;;3.45;1.92;;;;;;;;;;5080856;28;20044;-55
2023/03/08 05:14:36;;;;;;;2.58;1.38;;;;;;;;;;5082374;28;20064;-55
2023/03/08 05:17:04;;;;;;;3.00;1.40;;;;;;;;;;5081439;28;20058;-55
2023/03/08 05:19:30;;;;;;;2.20;1.13;;;;;;;;;;5083608;27;20142;-56
2023/03/08 05:21:56;;;;;;;1.90;1.67;;;;;;;;;;5082515;28;20048;-56
2023/03/08 05:24:22;;;;;;;3.15;1.65;;;;;;;;;;5079447;28;20055;-56
2023/03/08 05:26:48;;;;;;;2.83;1.77;;;;;;;;;;5082400;28;20048;-55
2023/03/08 05:29:14;;;;;;;2.03;1.30;;;;;;;;;;5081340;28;20040;-55
2023/03/08 05:31:42;;;;;;;2.50;1.30;;;;;;;;;;5080100;28;20044;-55
2023/03/08 05:34:10;;;;;;;2.38;1.45;;;;;;;;;;5080506;28;20097;-55
2023/03/08 05:36:36;;;;;;;2.17;1.27;;;;;;;;;;5081856;27;20682;-55
2023/03/08 05:39:02;;;;;;;2.58;1.67;;;;;;;;;;5079411;28;20043;-55
2023/03/08 05:41:28;;;;;;;0.77;0.70;;;;;;;;;;5081105;28;20040;-55
2023/03/08 05:43:57;;;;;;;1.10;0.77;;;;;;;;;;5081453;28;20048;-56
2023/03/08 05:46:23;;;;;;;1.35;0.80;;;;;;;;;;5080069;28;20051;-56
2023/03/08 05:48:49;;;;;;;1.77;0.75;;;;;;;;;;5081100;28;20043;-56
2023/03/08 05:51:16;;;;;;;1.00;0.70;;;;;;;;;;5081713;28;20823;-56
2023/03/08 05:53:43;;;;;;;1.20;0.80;;;;;;;;;;5082125;28;20578;-56
2023/03/08 05:56:12;;;;;;;1.75;0.98;;;;;;;;;;5080073;28;20156;-55
2023/03/08 05:58:38;;;;;;;0.47;0.47;;;;;;;;;;5078322;28;20037;-55
2023/03/08 06:01:24;;;;;;;0.77;0.60;;;;;;;;;;5080673;28;20044;-55
2023/03/08 06:03:51;;;;;;;1.50;0.73;;;;;;;;;;5080138;28;20889;-55
2023/03/08 06:06:18;;;;;;;1.27;1.02;;;;;;;;;;5076504;27;20070;-56
2023/03/08 06:08:44;;;;;;;0.95;0.60;;;;;;;;;;5070435;28;20051;-56
2023/03/08 06:11:12;;;;;;;0.75;0.68;;;;;;;;;;5080249;28;20071;-55
2023/03/08 06:13:38;;;;;;;1.75;1.33;;;;;;;;;;5076999;28;20135;-56
2023/03/08 06:16:04;;;;;;;1.27;0.85;;;;;;;;;;5078389;28;20114;-55
2023/03/08 06:18:31;;;;;;;0.88;0.70;;;;;;;;;;5079235;28;20617;-55
2023/03/08 06:21:04;;;;;;;1.38;0.82;;;;;;;;;;5081792;28;20433;-56
2023/03/08 06:23:31;;;;;;;2.67;1.50;;;;;;;;;;5076492;28;20598;-54
2023/03/08 06:25:58;;;;;;;1.13;0.70;;;;;;;;;;5081418;28;20043;-56
2023/03/08 06:28:24;;;;;;;1.27;0.85;;;;;;;;;;5079751;28;20046;-55
2023/03/08 06:30:50;;;;;;;1.27;0.80;;;;;;;;;;5080357;28;20047;-56
2023/03/08 06:33:17;;;;;;;0.40;0.40;;;;;;;;;;5082848;28;20044;-55
2023/03/08 06:35:43;;;;;;;0.60;0.60;;;;;;;;;;5082845;28;20040;-55
2023/03/08 06:38:10;;;;;;;4.05;1.98;;;;;;;;;;5080151;28;20051;-55
2023/03/08 06:40:36;;;;;;;5.10;1.38;;;;;;;;;;5081916;28;20087;-55
2023/03/08 06:43:02;;;;;;;1.08;0.75;;;;;;;;;;5082444;28;20564;-56
2023/03/08 06:45:28;;;;;;;1.17;0.77;;;;;;;;;;5080757;28;20049;-56
2023/03/08 06:47:54;;;;;;;1.88;1.17;;;;;;;;;;5079539;28;20969;-55
2023/03/08 06:50:20;;;;;;;3.33;0.88;;;;;;;;;;5083762;28;20071;-56
2023/03/08 06:52:46;;;;;;;2.45;1.00;;;;;;;;;;5079610;28;20044;-55
2023/03/08 06:55:12;;;;;;;4.03;1.60;;;;;;;;;;5081650;28;20044;-56
2023/03/08 06:57:38;;;;;;;2.70;1.63;;;;;;;;;;5079917;28;20052;-56
2023/03/08 07:00:05;;;;;;;3.55;2.17;;;;;;;;;;5080132;28;20043;-56
2023/03/08 07:02:31;;;;;;;3.75;1.75;;;;;;;;;;5080334;28;20048;-56
2023/03/08 07:04:57;;;;;;;8.52;1.67;;;;;;;;;;5080738;28;20046;-56
2023/03/08 07:07:23;;;;;;;3.13;1.40;;;;;;;;;;5072477;28;20262;-56
2023/03/08 07:09:49;;;;;;;6.22;1.90;;;;;;;;;;5077138;28;20040;-56
2023/03/08 07:12:15;;;;;;;3.25;2.15;;;;;;;;;;5077579;28;20106;-56
2023/03/08 07:14:41;;;;;;;5.00;2.85;;;;;;;;;;5080337;28;20143;-56
2023/03/08 07:17:07;;;;;;;5.05;1.65;;;;;;;;;;5080802;28;20075;-56
2023/03/08 07:19:33;;;;;;;8.05;1.73;;;;;;;;;;5079745;28;20541;-56
2023/03/08 07:21:59;;;;;;;2.85;1.45;;;;;;;;;;5080071;28;20567;-56
2023/03/08 07:24:25;;;;;;;7.32;1.77;;;;;;;;;;5079321;28;20037;-56
2023/03/08 07:26:51;;;;;;;6.13;1.67;;;;;;;;;;5080685;28;20134;-55
2023/03/08 07:29:17;;;;;;;4.97;2.15;;;;;;;;;;5079892;28;20044;-56
2023/03/08 07:31:44;;;;;;;6.40;2.20;;;;;;;;;;5077434;28;20044;-56
2023/03/08 07:34:10;;;;;;;5.93;1.48;;;;;;;;;;5079671;28;20055;-56
2023/03/08 07:36:37;;;;;;;5.80;1.92;;;;;;;;;;5080551;28;20040;-55
2023/03/08 07:39:03;;;;;;;8.48;2.67;;;;;;;;;;5076791;28;20052;-56
2023/03/08 07:41:30;;;;;;;5.60;1.90;;;;;;;;;;5080666;28;20075;-56
2023/03/08 07:43:56;;;;;;;7.75;2.17;;;;;;;;;;5076242;28;20076;-58
2023/03/08 07:46:22;;;;;;;4.15;1.40;;;;;;;;;;5073502;28;20046;-56
2023/03/08 07:48:48;;;;;;;4.68;2.13;;;;;;;;;;5072402;28;20063;-56
2023/03/08 07:51:15;;;;;;;6.95;1.17;;;;;;;;;;5064437;28;20048;-56
2023/03/08 07:53:41;;;;;;;6.22;1.85;;;;;;;;;;5069119;28;20032;-57
2023/03/08 07:56:07;;;;;;;4.35;1.58;;;;;;;;;;5079379;28;20049;-56
2023/03/08 07:58:33;;;;;;;5.22;1.60;;;;;;;;;;5079914;28;20036;-56
2023/03/08 08:00:59;;;;;;;2.17;1.23;;;;;;;;;;5084594;28;20071;-56
2023/03/08 08:03:25;;;;;;;1.73;0.90;;;;;;;;;;5083148;28;20126;-56
2023/03/08 08:05:52;;;;;;;4.85;2.08;;;;;;;;;;5083525;28;20044;-56
2023/03/08 08:08:18;;;;;;;4.68;1.20;;;;;;;;;;5084115;28;20040;-56
2023/03/08 08:10:44;;;;;;;4.72;1.40;;;;;;;;;;5084184;28;20620;-56
2023/03/08 08:13:10;;;;;;;2.10;1.20;;;;;;;;;;5085521;28;20359;-56
2023/03/08 08:15:36;;;;;;;4.82;1.40;;;;;;;;;;5081028;28;20643;-56
2023/03/08 08:18:03;;;;;;;3.20;1.52;;;;;;;;;;5086270;28;20152;-56
2023/03/08 08:20:29;;;;;;;8.52;1.92;;;;;;;;;;5086723;28;20044;-56
2023/03/08 08:22:55;;;;;;;4.30;1.65;;;;;;;;;;5085905;28;20066;-56
2023/03/08 08:25:21;;;;;;;3.30;1.15;;;;;;;;;;5085836;28;20493;-56
2023/03/08 08:27:47;;;;;;;8.00;2.63;;;;;;;;;;5085122;28;20051;-56
2023/03/08 08:30:14;;;;;;;8.63;2.53;;;;;;;;;;5085434;28;20044;-56
2023/03/08 08:32:40;;;;;;;4.68;2.13;;;;;;;;;;5083863;28;20091;-56
2023/03/08 08:35:06;;;;;;;7.13;1.90;;;;;;;;;;5086945;28;20040;-56
2023/03/08 08:37:33;;;;;;;5.50;1.38;;;;;;;;;;5085552;28;20048;-56
2023/03/08 08:39:59;;;;;;;3.15;1.33;;;;;;;;;;5087137;28;20497;-56
2023/03/08 08:42:26;;;;;;;8.93;3.47;;;;;;;;;;5086006;28;20043;-56
2023/03/08 08:44:52;;;;;;;4.45;2.65;;;;;;;;;;5085182;28;20113;-56
2023/03/08 08:47:18;;;;;;;11.80;3.88;;;;;;;;;;5084918;28;20048;-56
2023/03/08 08:49:44;;;;;;;4.47;3.00;;;;;;;;;;5083697;27;20123;-56
2023/03/08 08:52:11;;;;;;;7.38;3.35;;;;;;;;;;5085016;28;20055;-56
2023/03/08 08:54:38;;;;;;;6.22;2.67;;;;;;;;;;5083590;28;20044;-56
2023/03/08 08:57:05;;;;;;;5.03;2.17;;;;;;;;;;5085455;28;20051;-56
2023/03/08 08:59:31;;;;;;;7.00;1.70;;;;;;;;;;5084500;28;20053;-56
2023/03/08 09:01:57;;;;;;;5.20;1.52;;;;;;;;;;5083762;27;20039;-56
2023/03/08 09:04:24;;;;;;;4.80;3.05;;;;;;;;;;5086663;28;20133;-56
2023/03/08 09:06:52;;;;;;;5.03;1.88;;;;;;;;;;5084428;28;20037;-56
2023/03/08 09:09:18;;;;;;;3.70;1.80;;;;;;;;;;5080948;28;20545;-56
2023/03/08 09:11:46;;;;;;;3.75;1.63;;;;;;;;;;5080181;28;20075;-56
2023/03/08 09:14:12;;;;;;;3.25;1.50;;;;;;;;;;5085051;28;20052;-56
2023/03/08 09:16:38;;;;;;;3.92;1.10;;;;;;;;;;5083631;28;20052;-56
2023/03/08 09:19:05;;;;;;;8.32;1.60;;;;;;;;;;5078631;28;20040;-56
2023/03/08 09:21:32;;;;;;;5.57;2.67;;;;;;;;;;5085621;28;20102;-56
2023/03/08 09:23:59;;;;;;;5.82;2.05;;;;;;;;;;5082208;28;20036;-56
2023/03/08 09:26:25;;;;;;;3.20;1.38;;;;;;;;;;5083199;27;20107;-56
2023/03/08 09:28:51;;;;;;;2.92;0.90;;;;;;;;;;5083822;28;20044;-56
2023/03/08 09:31:18;;;;;;;6.90;1.35;;;;;;;;;;5083227;28;20287;-56
2023/03/08 09:33:50;;;;;;;2.53;1.33;;;;;;;;;;5079094;28;20029;-56
2023/03/08 09:36:17;;;;;;;1.60;1.10;;;;;;;;;;5083983;28;20045;-56
2023/03/08 09:38:43;;;;;;;2.28;1.25;;;;;;;;;;5086302;28;20974;-57
2023/03/08 09:41:28;;;;;;;1.65;1.08;;;;;;;;;;5083790;28;20035;-56
2023/03/08 09:44:00;;;;;;;6.63;1.40;;;;;;;;;;5085223;28;20126;-56
2023/03/08 09:46:26;;;;;;;;;;;;;;;;;;5084314;28;20052;-56
2023/03/08 09:48:52;;;;;;;1.33;0.75;;;;;;;;;;5083845;28;19924;-56
2023/03/08 09:51:19;;;;;;;2.28;0.93;;;;;;;;;;5082517;28;20079;-56
2023/03/08 09:53:56;;;;;;;4.25;1.65;;;;;;;;;;5084570;28;20039;-56
2023/03/08 09:56:28;;;;;;;1.98;1.40;;;;;;;;;;5086720;28;20044;-56
2023/03/08 09:59:11;;;;;;;1.73;1.08;;;;;;;;;;5080924;28;20233;-56
2023/03/08 10:01:43;;;;;;;3.03;1.33;;;;;;;;;;5082897;28;20044;-56
2023/03/08 10:04:31;;;;;;;4.93;1.98;;;;;;;;;;5085577;28;20082;-56
2023/03/08 10:07:08;;;;;;;2.17;0.98;;;;;;;;;;5085185;28;20036;-56
2023/03/08 10:09:46;;;;;;;1.80;0.90;;;;;;;;;;5083979;28;20048;-56
2023/03/08 10:12:31;;;;;;;2.47;1.48;;;;;;;;;;5084328;28;20528;-56
2023/03/08 10:15:17;;;;;;;4.38;1.10;;;;;;;;;;5084761;28;20048;-56
2023/03/08 10:17:47;;;;;;;3.78;1.67;;;;;;;;;;5081873;28;20054;-56
2023/03/08 10:20:17;;;;;;;4.47;1.48;;;;;;;;;;5085505;28;20048;-56
2023/03/08 10:22:44;;;;;;;4.10;1.38;;;;;;;;;;5082254;28;20071;-56
2023/03/08 10:25:30;;;;;;;4.03;1.15;;;;;;;;;;5083398;28;20051;-56
2023/03/08 10:27:57;;;;;;;4.65;1.92;;;;;;;;;;5084008;28;20593;-56
2023/03/08 10:30:28;;;;;;;2.70;1.50;;;;;;;;;;5083688;28;20101;-56
2023/03/08 10:32:58;;;;;;;3.00;1.25;;;;;;;;;;5083787;28;20041;-56
2023/03/08 10:35:38;;;;;;;7.57;2.20;;;;;;;;;;5083390;28;20044;-56
2023/03/08 10:38:05;;;;;;;4.65;1.27;;;;;;;;;;5083095;28;20047;-56
2023/03/08 10:40:31;;;;;;;3.90;1.63;;;;;;;;;;5084176;27;20646;-56
2023/03/08 10:43:04;;;;;;;3.25;1.60;;;;;;;;;;5081876;28;20070;-56
2023/03/08 10:45:30;;;;;;;4.63;1.67;;;;;;;;;;5083295;28;20484;-56
2023/03/08 10:48:04;;;;;;;7.28;2.42;;;;;;;;;;5081310;28;20036;-56
2023/03/08 10:50:35;;;;;;;4.03;1.90;;;;;;;;;;5081084;28;20072;-56
2023/03/08 10:53:09;;;;;;;6.82;1.90;;;;;;;;;;5082717;28;20037;-55
2023/03/08 10:55:41;;;;;;;6.30;1.80;;;;;;;;;;5083174;28;20125;-56
2023/03/08 10:58:21;;;;;;;9.02;2.03;;;;;;;;;;5082727;28;20032;-56
2023/03/08 11:00:51;;;;;;;1.88;0.93;;;;;;;;;;5083231;28;20071;-56
2023/03/08 11:03:22;;;;;;;4.88;1.85;;;;;;;;;;5082706;28;20126;-56
2023/03/08 11:06:06;;;;;;;4.00;1.38;;;;;;;;;;5081048;28;20039;-56
2023/03/08 11:08:34;;;;;;;5.63;1.55;;;;;;;;;;5082082;28;20040;-56
2023/03/08 11:11:01;;;;;;;6.60;1.45;;;;;;;;;;5083354;28;20044;-56
2023/03/08 11:13:47;;;;;;;4.72;1.75;;;;;;;;;;5081863;28;20111;-56
2023/03/08 11:16:19;;;;;;;3.15;1.08;;;;;;;;;;5081567;28;20190;-56
2023/03/08 11:18:44;;;;;;;;;;;;;;;;;;5082054;28;20048;-55
2023/03/08 11:21:37;;;;;;;5.97;2.40;;;;;;;;;;5083454;28;19924;-56
2023/03/08 11:24:12;;;;;;;5.55;1.40;;;;;;;;;;5081176;28;20308;-57
2023/03/08 11:26:43;;;;;;;8.00;1.60;;;;;;;;;;5081349;28;20044;-56
2023/03/08 11:29:20;;;;;;;2.45;1.15;;;;;;;;;;5079307;28;20041;-56
2023/03/08 11:32:00;;;;;;;4.68;1.20;;;;;;;;;;5083114;28;20051;-56
2023/03/08 11:34:26;;;;;;;5.15;1.95;;;;;;;;;;5084028;28;20051;-56
2023/03/08 11:37:02;;;;;;;15.07;3.85;;;;;;;;;;5085806;28;20044;-56
2023/03/08 11:39:54;;;;;;;7.40;2.35;;;;;;;;;;5088544;28;20055;-56
2023/03/08 11:42:38;;;;;;;4.72;2.30;;;;;;;;;;5085242;27;20056;-56
2023/03/08 11:45:24;;;;;;;6.22;2.22;;;;;;;;;;5087456;28;20086;-56
2023/03/08 11:47:52;;;;;;;1.48;0.80;;;;;;;;;;5083817;28;20068;-56
2023/03/08 11:50:24;;;;;;;3.50;1.25;;;;;;;;;;5087309;28;20055;-56
2023/03/08 11:52:50;;;;;;;;;;;;;;;;;;5085331;28;20564;-56
2023/03/08 11:55:21;;;;;;;5.65;2.00;;;;;;;;;;5088677;28;19927;-56
2023/03/08 11:57:53;;;;;;;6.00;1.52;;;;;;;;;;5087496;28;20037;-56
2023/03/08 12:00:37;;;;;;;2.08;1.27;;;;;;;;;;5084962;28;20041;-56
2023/03/08 12:03:12;;;;;;;6.47;1.70;;;;;;;;;;5083907;28;20686;-56
2023/03/08 12:05:41;;;;;;;3.88;2.17;;;;;;;;;;5084155;28;20076;-56
2023/03/08 12:08:07;;;;;;;2.95;1.50;;;;;;;;;;5085066;28;20598;-56
2023/03/08 12:10:33;;;;;;;4.75;1.52;;;;;;;;;;5084658;28;20048;-56
2023/03/08 12:13:06;;;;;;;3.00;1.77;;;;;;;;;;5084779;28;20041;-56
2023/03/08 12:15:38;;;;;;;6.50;1.58;;;;;;;;;;5083571;28;20056;-56
2023/03/08 12:18:09;;;;;;;1.63;1.00;;;;;;;;;;5081965;28;20056;-56
2023/03/08 12:20:39;;;;;;;2.73;1.13;;;;;;;;;;5085897;28;20597;-56
2023/03/08 12:23:11;;;;;;;4.03;1.70;;;;;;;;;;5082886;28;21112;-56
2023/03/08 12:25:37;;;;;;;;;;;;;;;;;;5087468;28;20048;-55
2023/03/08 12:28:16;;;;;;;3.72;1.08;;;;;;;;;;5086092;28;19927;-56
2023/03/08 12:30:53;;;;;;;3.58;1.20;;;;;;;;;;5086218;28;20121;-56
2023/03/08 12:33:19;;;;;;;1.55;0.73;;;;;;;;;;5086477;28;20045;-56
2023/03/08 12:35:56;;;;;;;3.63;0.70;;;;;;;;;;5084128;28;20145;-56
2023/03/08 12:38:22;;;;;;;1.30;0.80;;;;;;;;;;5085005;28;20603;-56
2023/03/08 12:40:49;;;;;;;3.90;0.90;;;;;;;;;;5086677;28;20101;-56
2023/03/08 12:43:19;;;;;;;1.23;0.85;;;;;;;;;;5087350;28;20446;-56
2023/03/08 12:46:00;;;;;;;0.93;0.77;;;;;;;;;;5082454;28;20045;-56
2023/03/08 12:48:26;;;;;;;2.08;0.88;;;;;;;;;;5085182;27;20656;-56
2023/03/08 12:50:58;;;;;;;1.33;0.82;;;;;;;;;;5082448;28;20110;-56
2023/03/08 12:53:24;;;;;;;;;;;;;;;;;;5087335;28;20044;-56
2023/03/08 12:56:00;;;;;;;1.33;0.70;;;;;;;;;;5084689;28;19919;-56
2023/03/08 12:58:27;;;;;;;1.45;0.85;;;;;;;;;;5083668;28;20168;-56
2023/03/08 13:01:00;;;;;;;2.80;0.90;;;;;;;;;;5085473;28;20094;-56
2023/03/08 13:03:28;;;;;;;3.65;1.13;;;;;;;;;;5083715;28;20090;-56
2023/03/08 13:05:55;;;;;;;0.65;0.63;;;;;;;;;;5085601;27;20048;-56
2023/03/08 13:08:36;;;;;;;1.95;0.88;;;;;;;;;;5084358;28;20047;-56
2023/03/08 13:11:28;;;;;;;1.23;0.75;;;;;;;;;;5083850;28;20110;-56
2023/03/08 13:14:00;;;;;;;1.83;1.33;;;;;;;;;;5084870;28;20060;-57
2023/03/08 13:16:34;;;;;;;0.65;0.57;;;;;;;;;;5082831;28;20558;-57
2023/03/08 13:19:20;;;;;;;2.03;0.75;;;;;;;;;;5082836;28;20059;-56
2023/03/08 13:21:46;;;;;;;1.17;0.63;;;;;;;;;;5084400;28;20063;-57
2023/03/08 13:24:25;;;;;;;2.95;0.77;;;;;;;;;;5082863;28;20225;-57
2023/03/08 13:27:05;;;;;;;0.77;0.60;;;;;;;;;;5084838;28;20075;-57
2023/03/08 13:29:32;;;;;;;1.48;0.90;;;;;;;;;;5084493;28;20040;-57
2023/03/08 13:32:05;;;;;;;0.77;0.60;;;;;;;;;;5083834;28;20040;-57
2023/03/08 13:34:32;;;;;;;1.40;0.93;;;;;;;;;;5084556;28;20044;-57
2023/03/08 13:36:58;;;;;;;3.60;1.25;;;;;;;;;;5083326;28;20127;-57
2023/03/08 13:39:26;;;;;;;1.08;0.80;;;;;;;;;;5084066;28;20583;-57
2023/03/08 13:41:53;;;;;;;2.53;1.30;;;;;;;;;;5084599;28;20041;-57
2023/03/08 13:44:22;;;;;;;2.78;1.05;;;;;;;;;;5081089;28;20040;-57
2023/03/08 13:46:49;;;;;;;4.00;2.35;;;;;;;;;;5084360;28;20040;-57
2023/03/08 13:49:17;;;;;;;4.57;2.20;;;;;;;;;;5078921;28;20040;-57
2023/03/08 13:51:44;;;;;;;2.35;1.00;;;;;;;;;;5084248;28;20774;-57
2023/03/08 13:54:14;;;;;;;1.17;0.80;;;;;;;;;;5081199;28;20111;-57
2023/03/08 13:56:40;;;;;;;5.85;2.38;;;;;;;;;;5084188;28;20493;-57
2023/03/08 13:59:07;;;;;;;2.65;1.73;;;;;;;;;;5084740;28;20047;-57
2023/03/08 14:01:33;;;;;;;4.40;1.20;;;;;;;;;;5083666;28;20036;-61
2023/03/08 14:04:09;;;;;;;4.43;1.55;;;;;;;;;;5081521;27;20044;-56
2023/03/08 14:06:37;;;;;;;5.25;1.60;;;;;;;;;;5084818;28;21186;-57
2023/03/08 14:09:04;;;;;;;3.97;2.03;;;;;;;;;;5083469;28;20103;-56
2023/03/08 14:11:32;;;;;;;2.80;1.42;;;;;;;;;;5085305;28;20067;-57
2023/03/08 14:14:00;;;;;;;4.00;1.83;;;;;;;;;;5083197;28;20055;-57
2023/03/08 14:16:26;;;;;;;4.22;1.60;;;;;;;;;;5082878;28;20048;-57
2023/03/08 14:18:52;;;;;;;3.10;1.30;;;;;;;;;;5081628;28;20442;-57
2023/03/08 14:21:23;;;;;;;3.25;1.10;;;;;;;;;;5083165;28;20143;-57
2023/03/08 14:23:53;;;;;;;1.63;0.82;;;;;;;;;;5083643;28;20064;-57
2023/03/08 14:26:38;;;;;;;5.72;1.05;;;;;;;;;;5083275;28;20521;-57
2023/03/08 14:29:21;;;;;;;1.25;0.77;;;;;;;;;;5083079;28;20059;-57
2023/03/08 14:31:54;;;;;;;4.85;1.40;;;;;;;;;;5082976;28;20084;-57
2023/03/08 14:34:25;;;;;;;3.97;1.00;;;;;;;;;;5079761;28;20078;-56
2023/03/08 14:36:56;;;;;;;2.17;1.02;;;;;;;;;;5084297;28;20047;-56
2023/03/08 14:39:24;;;;;;;3.50;0.93;;;;;;;;;;5079571;28;20365;-56
2023/03/08 14:41:50;;;;;;;4.32;1.63;;;;;;;;;;5082045;28;20597;-56
2023/03/08 14:44:19;;;;;;;1.95;1.00;;;;;;;;;;5081585;28;20577;-56
2023/03/08 14:46:45;;;;;;;2.55;0.95;;;;;;;;;;5082791;28;20044;-56
2023/03/08 14:49:22;;;;;;;2.20;0.90;;;;;;;;;;5082373;28;20039;-56